createdAt,value
2019-03-28T00:02:05.135Z,5.50
2019-03-28T00:05:10.169Z,5.59
2019-03-28T00:08:17.400Z,5.64
2019-03-28T00:11:22.629Z,5.70
2019-03-28T00:14:27.295Z,5.75
2019-03-28T00:17:32.295Z,5.68
2019-03-28T00:20:37.292Z,5.74
2019-03-28T00:23:46.472Z,5.59
2019-03-28T00:26:51.458Z,5.69
2019-03-28T00:29:56.300Z,5.74
2019-03-28T00:33:01.045Z,5.62
2019-03-28T00:36:06.278Z,5.75
2019-03-28T00:39:12.628Z,5.84
2019-03-28T00:42:17.706Z,5.92
2019-03-28T00:45:22.750Z,6.01
2019-03-28T00:48:27.221Z,5.94
2019-03-28T00:51:32.564Z,6.01
2019-03-28T00:54:37.902Z,6.06
2019-03-28T00:57:42.575Z,5.95
2019-03-28T01:00:47.705Z,5.95
2019-03-28T01:03:52.294Z,6.09
2019-03-28T01:06:57.211Z,6.11
2019-03-28T01:10:02.074Z,5.97
2019-03-28T01:13:07.273Z,6.14
2019-03-28T01:16:12.279Z,6.14
2019-03-28T01:19:17.311Z,6.17
2019-03-28T01:22:22.321Z,6.14
2019-03-28T01:25:27.674Z,5.98
2019-03-28T01:28:31.867Z,5.86
2019-03-28T01:31:37.688Z,5.61
2019-03-28T01:34:42.536Z,5.61
2019-03-28T01:37:47.582Z,5.47
2019-03-28T01:40:52.299Z,5.78
2019-03-28T01:43:57.123Z,5.71
2019-03-28T01:47:02.364Z,5.86
2019-03-28T01:50:07.752Z,5.86
2019-03-28T01:53:12.288Z,5.89
2019-03-28T01:56:17.255Z,5.86
2019-03-28T01:59:22.433Z,5.76
2019-03-28T02:02:27.374Z,5.90
2019-03-28T02:05:32.344Z,5.95
2019-03-28T02:08:37.179Z,6.01
2019-03-28T02:11:41.893Z,5.68
2019-03-28T02:14:47.951Z,5.76
2019-03-28T02:17:54.413Z,5.90
2019-03-28T02:20:59.951Z,5.90
2019-03-28T02:24:05.394Z,5.90
2019-03-28T02:27:23.080Z,5.92
2019-03-28T02:30:20.533Z,5.90
2019-03-28T02:33:25.794Z,5.95
2019-03-28T02:36:31.074Z,5.95
2019-03-28T02:39:36.266Z,5.62
2019-03-28T02:42:41.287Z,5.70
2019-03-28T02:45:46.625Z,5.62
2019-03-28T02:48:51.329Z,5.53
2019-03-28T02:51:56.084Z,5.52
2019-03-28T02:55:02.972Z,5.65
2019-03-28T02:58:07.540Z,5.72
2019-03-28T03:01:12.811Z,5.68
2019-03-28T03:04:17.419Z,5.76
2019-03-28T03:07:22.270Z,5.80
2019-03-28T03:10:27.353Z,5.72
2019-03-28T03:13:32.164Z,5.68
2019-03-28T03:16:37.682Z,5.67
2019-03-28T03:19:41.670Z,5.63
2019-03-28T03:22:46.312Z,5.69
2019-03-28T03:25:51.073Z,5.68
2019-03-28T03:28:55.969Z,5.61
2019-03-28T03:32:00.783Z,5.64
2019-03-28T03:35:05.880Z,5.56
2019-03-28T03:38:10.912Z,5.64
2019-03-28T03:41:15.792Z,5.68
2019-03-28T03:44:20.619Z,5.68
2019-03-28T03:47:25.283Z,5.74
2019-03-28T03:50:30.657Z,5.73
2019-03-28T03:53:34.860Z,5.59
2019-03-28T03:56:39.700Z,5.65
2019-03-28T03:59:44.012Z,5.65
2019-03-28T04:02:49.317Z,5.72
2019-03-28T04:05:54.533Z,5.61
2019-03-28T04:09:01.460Z,5.70
2019-03-28T04:12:06.939Z,5.70
2019-03-28T04:15:11.493Z,5.71
2019-03-28T04:18:16.784Z,5.76
2019-03-28T04:21:21.983Z,5.73
2019-03-28T04:24:26.733Z,5.66
2019-03-28T04:27:31.058Z,5.55
2019-03-28T04:30:36.302Z,5.78
2019-03-28T04:33:41.484Z,5.75
2019-03-28T04:36:46.362Z,5.62
2019-03-28T04:39:51.555Z,5.78
2019-03-28T04:42:56.335Z,5.67
2019-03-28T04:46:01.355Z,5.73
2019-03-28T04:49:06.702Z,5.82
2019-03-28T04:52:10.920Z,5.84
2019-03-28T04:55:16.240Z,5.88
2019-03-28T04:58:21.929Z,5.87
2019-03-28T05:01:27.668Z,5.87
2019-03-28T05:04:32.559Z,5.90
2019-03-28T05:07:37.899Z,5.92
2019-03-28T05:10:42.986Z,5.86
2019-03-28T05:13:48.297Z,5.86
2019-03-28T05:16:55.671Z,6.01
2019-03-28T05:20:00.660Z,5.96
2019-03-28T05:23:04.860Z,5.97
2019-03-28T05:26:09.761Z,5.99
2019-03-28T05:29:13.904Z,5.99
2019-03-28T05:32:18.703Z,6.16
2019-03-28T05:35:22.626Z,6.16
2019-03-28T05:38:28.282Z,6.24
2019-03-28T05:41:33.750Z,6.24
2019-03-28T05:44:41.490Z,6.25
2019-03-28T05:47:46.568Z,6.25
2019-03-28T05:50:51.319Z,6.45
2019-03-28T05:53:56.315Z,6.52
2019-03-28T05:57:01.308Z,6.57
2019-03-28T06:00:08.095Z,6.68
2019-03-28T06:03:12.910Z,6.72
2019-03-28T06:06:18.984Z,6.83
2019-03-28T06:09:24.443Z,6.83
2019-03-28T06:12:29.662Z,6.94
2019-03-28T06:15:35.321Z,6.97
2019-03-28T06:18:40.425Z,6.97
2019-03-28T06:21:45.431Z,6.90
2019-03-28T06:24:50.496Z,6.78
2019-03-28T06:27:55.840Z,6.89
2019-03-28T06:31:00.635Z,6.71
2019-03-28T06:34:05.724Z,6.71
2019-03-28T06:37:11.028Z,6.65
2019-03-28T06:40:17.730Z,6.58
2019-03-28T06:43:23.260Z,6.61
2019-03-28T06:46:27.948Z,6.72
2019-03-28T06:49:34.680Z,6.52
2019-03-28T06:52:39.567Z,6.56
2019-03-28T06:55:44.513Z,6.51
2019-03-28T06:58:49.411Z,6.80
2019-03-28T07:01:54.384Z,6.90
2019-03-28T07:05:00.409Z,7.21
2019-03-28T07:08:05.488Z,7.40
2019-03-28T07:11:10.296Z,7.14
2019-03-28T07:14:15.324Z,6.96
2019-03-28T07:17:20.316Z,7.34
2019-03-28T07:20:26.344Z,7.24
2019-03-28T07:23:31.575Z,7.35
2019-03-28T07:26:36.846Z,7.33
2019-03-28T07:29:50.687Z,7.64
2019-03-28T07:32:49.272Z,7.64
2019-03-28T07:35:54.622Z,7.72
2019-03-28T07:38:59.408Z,7.70
2019-03-28T07:42:04.141Z,7.99
2019-03-28T07:45:10.267Z,8.08
2019-03-28T07:48:15.578Z,8.46
2019-03-28T07:51:20.466Z,8.05
2019-03-28T07:54:25.276Z,8.25
2019-03-28T07:57:30.299Z,8.25
2019-03-28T08:00:35.325Z,8.49
2019-03-28T08:03:40.503Z,7.95
2019-03-28T08:06:50.046Z,8.79
2019-03-28T08:09:51.938Z,9.19
2019-03-28T08:12:57.394Z,9.18
2019-03-28T08:16:02.593Z,9.50
2019-03-28T08:19:08.423Z,8.97
2019-03-28T08:22:13.245Z,8.80
2019-03-28T08:25:17.968Z,8.92
2019-03-28T08:28:23.257Z,8.83
2019-03-28T08:31:28.517Z,9.11
2019-03-28T08:34:33.615Z,9.01
2019-03-28T08:37:40.915Z,9.06
2019-03-28T08:40:45.526Z,8.94
2019-03-28T08:43:50.341Z,9.10
2019-03-28T08:46:55.332Z,8.84
2019-03-28T08:50:00.425Z,9.16
2019-03-28T08:53:04.852Z,9.28
2019-03-28T08:56:09.743Z,8.82
2019-03-28T08:59:14.834Z,8.82
2019-03-28T09:02:19.745Z,9.24
2019-03-28T09:05:23.888Z,9.24
2019-03-28T09:08:28.576Z,8.76
2019-03-28T09:11:33.678Z,8.76
2019-03-28T09:14:38.384Z,8.78
2019-03-28T09:17:43.274Z,9.08
2019-03-28T09:20:48.297Z,9.31
2019-03-28T09:23:53.310Z,9.91
2019-03-28T09:26:58.444Z,9.09
2019-03-28T09:30:03.297Z,10.11
2019-03-28T09:33:07.914Z,11.01
2019-03-28T09:36:12.520Z,10.01
2019-03-28T09:39:17.246Z,10.94
2019-03-28T09:42:22.000Z,11.08
2019-03-28T09:45:26.733Z,10.41
2019-03-28T09:48:30.658Z,11.05
2019-03-28T09:51:38.102Z,10.45
2019-03-28T09:54:43.010Z,10.92
2019-03-28T09:57:49.337Z,10.92
2019-03-28T10:01:02.805Z,10.90
2019-03-28T10:04:01.731Z,10.19
2019-03-28T10:07:07.354Z,10.57
2019-03-28T10:10:13.775Z,10.85
2019-03-28T10:13:19.386Z,10.76
2019-03-28T10:16:24.405Z,10.33
2019-03-28T10:19:29.328Z,10.76
2019-03-28T10:22:34.339Z,10.68
2019-03-28T10:25:39.471Z,11.93
2019-03-28T10:28:45.358Z,11.63
2019-03-28T10:31:50.570Z,10.99
2019-03-28T10:34:55.254Z,11.96
2019-03-28T10:38:00.174Z,12.05
2019-03-28T10:41:05.133Z,11.27
2019-03-28T10:44:10.493Z,10.93
2019-03-28T10:47:15.747Z,11.33
2019-03-28T10:50:20.976Z,11.05
2019-03-28T10:53:25.641Z,11.05
2019-03-28T10:56:30.335Z,10.93
2019-03-28T10:59:35.411Z,11.31
2019-03-28T11:02:40.126Z,10.78
2019-03-28T11:05:44.974Z,11.17
2019-03-28T11:08:51.308Z,10.95
2019-03-28T11:11:56.680Z,11.18
2019-03-28T11:15:01.897Z,12.06
2019-03-28T11:18:07.419Z,12.41
2019-03-28T11:21:12.357Z,12.51
2019-03-28T11:24:17.138Z,13.68
2019-03-28T11:27:21.936Z,12.97
2019-03-28T11:30:26.960Z,12.86
2019-03-28T11:33:32.325Z,12.86
2019-03-28T11:36:37.946Z,13.77
2019-03-28T11:39:44.612Z,12.30
2019-03-28T11:42:51.906Z,13.86
2019-03-28T11:45:55.613Z,14.61
2019-03-28T11:49:00.627Z,13.22
2019-03-28T11:52:06.140Z,14.99
2019-03-28T11:55:11.056Z,14.99
2019-03-28T11:58:16.015Z,14.91
2019-03-28T12:01:21.287Z,14.39
2019-03-28T12:04:25.971Z,13.98
2019-03-28T12:07:30.731Z,13.42
2019-03-28T12:11:04.289Z,13.35
2019-03-28T12:14:09.781Z,14.13
2019-03-28T12:17:14.530Z,15.86
2019-03-28T12:20:19.441Z,15.86
2019-03-28T12:23:24.237Z,16.09
2019-03-28T12:26:33.625Z,15.97
2019-03-28T12:29:38.256Z,14.96
2019-03-28T12:32:43.327Z,14.21
2019-03-28T12:35:49.393Z,13.34
2019-03-28T12:38:54.697Z,13.01
2019-03-28T12:42:00.266Z,13.22
2019-03-28T12:45:12.986Z,14.26
2019-03-28T12:48:17.771Z,14.89
2019-03-28T12:51:23.811Z,12.50
2019-03-28T12:54:28.797Z,12.91
2019-03-28T12:57:33.975Z,12.91
2019-03-28T13:00:38.710Z,13.52
2019-03-28T13:03:45.882Z,13.73
2019-03-28T13:06:49.290Z,12.69
2019-03-28T13:09:53.967Z,13.42
2019-03-28T13:12:59.260Z,13.73
2019-03-28T13:16:05.433Z,13.73
2019-03-28T13:19:11.378Z,13.74
2019-03-28T13:22:16.590Z,14.33
2019-03-28T13:25:21.295Z,13.38
2019-03-28T13:28:26.562Z,13.19
2019-03-28T13:31:31.412Z,12.36
2019-03-28T13:34:36.781Z,12.73
2019-03-28T13:37:42.300Z,12.40
2019-03-28T13:40:47.340Z,11.77
2019-03-28T13:43:52.959Z,12.10
2019-03-28T13:46:58.656Z,12.06
2019-03-28T13:50:04.957Z,12.27
2019-03-28T13:53:10.594Z,12.55
2019-03-28T13:56:15.808Z,12.10
2019-03-28T13:59:21.028Z,11.69
2019-03-28T14:02:29.471Z,11.69
2019-03-28T14:05:34.403Z,11.47
2019-03-28T14:08:39.676Z,11.16
2019-03-28T14:11:45.919Z,11.42
2019-03-28T14:14:50.972Z,11.42
2019-03-28T14:17:56.255Z,11.37
2019-03-28T14:21:01.926Z,11.37
2019-03-28T14:24:07.334Z,11.30
2019-03-28T14:27:12.578Z,11.38
2019-03-28T14:30:20.490Z,11.71
2019-03-28T14:33:27.326Z,11.88
2019-03-28T14:36:33.075Z,11.86
2019-03-28T14:39:39.461Z,11.11
2019-03-28T14:42:46.288Z,11.16
2019-03-28T14:45:52.267Z,11.36
2019-03-28T14:48:57.347Z,11.46
2019-03-28T14:52:02.279Z,11.55
2019-03-28T14:55:07.294Z,11.81
2019-03-28T14:58:12.058Z,11.27
2019-03-28T15:01:17.791Z,11.59
2019-03-28T15:04:22.704Z,11.49
2019-03-28T15:07:27.298Z,11.48
2019-03-28T15:10:32.428Z,11.47
2019-03-28T15:13:40.367Z,11.50
2019-03-28T15:16:43.708Z,11.65
2019-03-28T15:19:48.310Z,11.91
2019-03-28T15:22:54.281Z,12.10
2019-03-28T15:26:00.438Z,12.56
2019-03-28T15:29:06.951Z,12.75
2019-03-28T15:32:11.574Z,12.83
2019-03-28T15:35:16.822Z,12.95
2019-03-28T15:38:21.879Z,12.67
2019-03-28T15:41:26.932Z,11.91
2019-03-28T15:44:31.900Z,11.91
2019-03-28T15:47:36.686Z,11.78
2019-03-28T15:50:41.269Z,11.78
2019-03-28T15:53:46.403Z,12.32
2019-03-28T15:56:51.735Z,11.85
2019-03-28T15:59:55.713Z,11.34
2019-03-28T16:02:59.635Z,11.67
2019-03-28T16:06:04.504Z,11.55
2019-03-28T16:09:09.497Z,11.71
2019-03-28T16:12:15.195Z,11.62
2019-03-28T16:15:22.443Z,11.31
2019-03-28T16:18:26.695Z,11.71
2019-03-28T16:21:32.391Z,11.60
2019-03-28T16:24:37.525Z,11.45
2019-03-28T16:27:43.115Z,11.66
2019-03-28T16:30:47.750Z,11.20
2019-03-28T16:34:05.897Z,11.26
2019-03-28T16:36:58.951Z,10.86
2019-03-28T16:40:04.124Z,10.82
2019-03-28T16:43:09.587Z,10.82
2019-03-28T16:46:16.884Z,10.88
2019-03-28T16:49:21.730Z,10.56
2019-03-28T16:52:26.326Z,10.56
2019-03-28T16:55:31.525Z,10.79
2019-03-28T16:58:37.896Z,10.41
2019-03-28T17:01:42.624Z,10.45
2019-03-28T17:04:47.654Z,10.33
2019-03-28T17:07:52.689Z,10.53
2019-03-28T17:10:57.633Z,10.34
2019-03-28T17:14:02.809Z,10.42
2019-03-28T17:17:08.824Z,10.42
2019-03-28T17:20:15.091Z,10.48
2019-03-28T17:23:22.905Z,10.45
2019-03-28T17:26:28.312Z,9.87
2019-03-28T17:29:33.428Z,9.87
2019-03-28T17:32:38.862Z,10.27
2019-03-28T17:35:45.630Z,9.98
2019-03-28T17:38:52.401Z,10.16
2019-03-28T17:41:57.923Z,10.27
2019-03-28T17:45:03.402Z,10.24
2019-03-28T17:48:08.309Z,10.19
2019-03-28T17:51:13.991Z,10.11
2019-03-28T17:54:19.562Z,10.22
2019-03-28T17:57:25.714Z,10.00
2019-03-28T18:00:33.488Z,9.99
2019-03-28T18:03:38.833Z,10.02
2019-03-28T18:06:44.304Z,9.85
2019-03-28T18:09:51.215Z,9.85
2019-03-28T18:12:57.270Z,9.83
2019-03-28T18:16:02.591Z,9.84
2019-03-28T18:19:08.103Z,9.91
2019-03-28T18:22:13.566Z,9.68
2019-03-28T18:25:18.289Z,9.74
2019-03-28T18:28:23.733Z,9.81
2019-03-28T18:31:28.074Z,9.56
2019-03-28T18:34:34.246Z,9.44
2019-03-28T18:37:39.387Z,9.53
2019-03-28T18:40:44.483Z,9.62
2019-03-28T18:43:49.818Z,9.68
2019-03-28T18:46:54.971Z,9.71
2019-03-28T18:50:03.140Z,9.74
2019-03-28T18:53:05.952Z,9.69
2019-03-28T18:56:11.835Z,9.67
2019-03-28T18:59:18.253Z,9.57
2019-03-28T19:02:23.134Z,9.57
2019-03-28T19:05:28.253Z,9.58
2019-03-28T19:08:35.460Z,9.51
2019-03-28T19:11:40.989Z,9.54
2019-03-28T19:14:48.324Z,9.55
2019-03-28T19:17:53.459Z,9.54
2019-03-28T19:20:59.162Z,9.52
2019-03-28T19:24:04.293Z,9.45
2019-03-28T19:27:10.912Z,9.27
2019-03-28T19:30:20.629Z,9.34
2019-03-28T19:33:27.544Z,9.36
2019-03-28T19:36:33.809Z,9.36
2019-03-28T19:39:39.328Z,9.24
2019-03-28T19:42:44.346Z,9.24
2019-03-28T19:45:54.463Z,9.18
2019-03-28T19:48:59.297Z,9.17
2019-03-28T19:52:04.297Z,9.17
2019-03-28T19:55:09.520Z,9.19
2019-03-28T19:58:14.683Z,9.23
2019-03-28T20:01:21.374Z,9.16
2019-03-28T20:04:28.601Z,9.16
2019-03-28T20:07:33.371Z,9.09
2019-03-28T20:10:38.254Z,9.08
2019-03-28T20:13:44.585Z,9.06
2019-03-28T20:16:50.278Z,9.00
2019-03-28T20:19:57.470Z,9.01
2019-03-28T20:23:02.424Z,8.99
2019-03-28T20:26:07.789Z,8.78
2019-03-28T20:29:13.055Z,8.66
2019-03-28T20:32:19.302Z,8.63
2019-03-28T20:35:24.605Z,8.77
2019-03-28T20:38:29.926Z,8.74
2019-03-28T20:41:36.017Z,8.35
2019-03-28T20:44:41.712Z,8.55
2019-03-28T20:47:47.980Z,8.52
2019-03-28T20:50:52.956Z,8.47
2019-03-28T20:53:58.031Z,8.49
2019-03-28T20:57:03.951Z,8.51
2019-03-28T21:00:09.156Z,8.21
2019-03-28T21:03:15.154Z,8.09
2019-03-28T21:06:20.623Z,8.41
2019-03-28T21:09:25.728Z,8.43
2019-03-28T21:12:31.333Z,8.39
2019-03-28T21:15:36.381Z,8.48
2019-03-28T21:18:41.341Z,8.48
2019-03-28T21:21:48.107Z,8.40
2019-03-28T21:24:53.446Z,8.24
2019-03-28T21:27:59.741Z,8.44
2019-03-28T21:31:06.492Z,8.37
2019-03-28T21:34:11.500Z,8.29
2019-03-28T21:37:16.510Z,8.29
2019-03-28T21:40:23.016Z,8.24
2019-03-28T21:43:30.709Z,8.19
2019-03-28T21:46:37.103Z,8.32
2019-03-28T21:49:43.599Z,8.32
2019-03-28T21:52:48.291Z,8.49
2019-03-28T21:55:57.194Z,8.49
2019-03-28T21:59:01.528Z,8.57
2019-03-28T22:02:06.807Z,8.55
2019-03-28T22:05:10.630Z,8.58
2019-03-28T22:08:20.332Z,8.56
2019-03-28T22:11:25.266Z,8.57
2019-03-28T22:14:31.128Z,8.52
2019-03-28T22:17:35.735Z,8.58
2019-03-28T22:20:40.137Z,8.57
2019-03-28T22:23:44.972Z,8.57
2019-03-28T22:26:51.272Z,8.61
2019-03-28T22:29:57.559Z,8.62
2019-03-28T22:33:03.528Z,8.58
2019-03-28T22:36:09.442Z,8.51
2019-03-28T22:39:14.323Z,8.60
2019-03-28T22:42:19.337Z,8.40
2019-03-28T22:45:24.423Z,8.47
2019-03-28T22:48:29.464Z,8.45
2019-03-28T22:51:34.631Z,8.50
2019-03-28T22:54:39.356Z,8.52
2019-03-28T22:57:44.293Z,8.58
2019-03-28T23:00:51.615Z,8.60
2019-03-28T23:03:56.333Z,8.58
2019-03-28T23:07:10.970Z,8.34
2019-03-28T23:10:10.969Z,8.45
2019-03-28T23:13:16.331Z,8.46
2019-03-28T23:16:21.171Z,8.41
2019-03-28T23:19:26.303Z,8.43
2019-03-28T23:22:31.028Z,8.29
2019-03-28T23:25:36.911Z,8.19
2019-03-28T23:28:41.984Z,8.29
2019-03-28T23:31:47.063Z,8.33
2019-03-28T23:34:52.349Z,8.37
2019-03-28T23:37:56.975Z,8.42
2019-03-28T23:41:02.372Z,8.41
2019-03-28T23:44:07.308Z,8.43
2019-03-28T23:47:13.367Z,8.44
2019-03-28T23:50:18.749Z,8.44
2019-03-28T23:53:22.648Z,8.43
2019-03-28T23:56:27.365Z,8.46
2019-03-28T23:59:32.302Z,8.52
